Time;durP1;ratioP1;P1;durP2;ratioP2;P2;SDS_P1;SDS_P2;PMS_P1;PMS_P2;Temp;Humidity;BMP_temperature;BMP_pressure;BME280_temperature;BME280_humidity;BME280_pressure;Samples;Min_cycle;Max_cycle;Signal;HPM_P1;HPM_P2
2022/02/14 00:01:23;;;;;;;23.70;11.50;;;;;;;-1.30;69.75;100615.05;88134;1276;95054;-81
2022/02/14 00:03:30;;;;;;;19.30;10.50;;;;;;;-1.37;69.72;100618.91;88200;1276;77158;-81
2022/02/14 00:05:36;;;;;;;21.00;10.10;;;;;;;-1.41;69.76;100612.14;88225;1276;82712;-80
2022/02/14 00:07:42;;;;;;;20.30;11.00;;;;;;;-1.43;69.81;100614.09;88158;1276;99449;-57
2022/02/14 00:09:48;;;;;;;20.00;10.40;;;;;;;-1.49;69.78;100617.17;88156;1276;88701;-56
2022/02/14 00:11:54;;;;;;;17.40;9.60;;;;;;;-1.52;69.79;100613.46;88131;1276;93953;-57
2022/02/14 00:14:00;;;;;;;20.30;9.80;;;;;;;-1.53;69.70;100613.73;88163;1276;77598;-57
2022/02/14 00:16:08;;;;;;;23.10;11.30;;;;;;;-1.58;69.82;100611.65;88146;1276;80396;-56
2022/02/14 00:18:14;;;;;;;18.10;9.20;;;;;;;-1.62;69.83;100612.92;88152;1276;98678;-58
2022/02/14 00:20:19;;;;;;;19.90;9.80;;;;;;;-1.62;69.93;100610.48;88122;1276;88015;-57
2022/02/14 00:22:25;;;;;;;22.80;10.30;;;;;;;-1.63;69.78;100610.91;88144;1276;96686;-81
2022/02/14 00:24:31;;;;;;;17.90;9.40;;;;;;;-1.63;69.77;100607.56;88216;1276;79196;-81
2022/02/14 00:26:38;;;;;;;21.10;9.70;;;;;;;-1.62;69.94;100610.87;88172;1276;83285;-57
2022/02/14 00:28:46;;;;;;;21.50;9.10;;;;;;;-1.62;69.94;100610.66;88162;1276;98216;-56
2022/02/14 00:30:55;;;;;;;19.30;9.40;;;;;;;-1.63;70.03;100607.36;88121;1276;88407;-57
2022/02/14 00:33:02;;;;;;;19.40;9.00;;;;;;;-1.58;70.01;100611.24;88132;1276;96135;-55
2022/02/14 00:35:13;;;;;;;16.00;9.50;;;;;;;-1.56;70.18;100610.43;88087;1276;77685;-56
2022/02/14 00:37:19;;;;;;;17.70;8.60;;;;;;;-1.60;69.75;100602.89;88160;1276;83835;-56
2022/02/14 00:39:26;;;;;;;18.10;9.50;;;;;;;-1.59;69.87;100605.19;88153;1276;98813;-56
2022/02/14 00:41:31;;;;;;;18.90;9.50;;;;;;;-1.60;69.99;100602.73;88187;1276;85621;-81
2022/02/14 00:43:41;;;;;;;17.30;9.70;;;;;;;-1.63;69.90;100604.21;88204;1276;95180;-81
2022/02/14 00:45:51;;;;;;;18.30;8.80;;;;;;;-1.69;69.76;100601.46;88187;1276;76307;-81
2022/02/14 00:47:56;;;;;;;21.60;9.90;;;;;;;-1.70;69.88;100600.85;88238;1276;80645;-80
2022/02/14 00:50:08;;;;;;;19.60;10.20;;;;;;;-1.74;69.83;100598.29;88188;1276;99669;-81
2022/02/14 00:52:14;;;;;;;20.20;10.00;;;;;;;-1.77;69.84;100593.02;88187;1276;89057;-79
2022/02/14 00:54:22;;;;;;;20.00;10.40;;;;;;;-1.80;69.83;100595.64;88195;1276;95736;-80
2022/02/14 00:56:28;;;;;;;20.60;10.50;;;;;;;-1.82;70.02;100591.77;88179;1276;78437;-53
2022/02/14 00:58:34;;;;;;;17.10;10.00;;;;;;;-1.86;69.83;100592.02;88200;1276;80149;-56
2022/02/14 01:00:44;;;;;;;21.00;10.50;;;;;;;-1.86;69.86;100591.70;88170;1276;100082;-56
2022/02/14 01:02:50;;;;;;;18.90;10.10;;;;;;;-1.89;69.85;100589.27;88042;1278;89223;-56
2022/02/14 01:04:56;;;;;;;21.50;10.80;;;;;;;-1.92;69.74;100587.67;88150;1276;94610;-56
2022/02/14 01:07:05;;;;;;;22.10;10.60;;;;;;;-1.95;69.74;100592.99;88142;1276;82020;-80
2022/02/14 01:09:12;;;;;;;19.50;10.50;;;;;;;-1.99;69.73;100587.30;88205;1276;80655;-79
2022/02/14 01:11:21;;;;;;;21.60;10.50;;;;;;;-1.99;69.81;100588.20;88213;1276;99542;-70
2022/02/14 01:13:30;;;;;;;20.80;10.10;;;;;;;-1.95;69.63;100584.91;88154;1276;88465;-56
2022/02/14 01:15:36;;;;;;;17.90;9.80;;;;;;;-1.91;69.81;100583.36;88187;1276;93914;-59
2022/02/14 01:17:42;;;;;;;19.10;9.40;;;;;;;-1.89;69.65;100586.98;88147;1276;79452;-56
2022/02/14 01:19:48;;;;;;;19.30;10.10;;;;;;;-1.87;69.79;100587.02;88191;1276;80876;-56
2022/02/14 01:21:54;;;;;;;19.10;10.20;;;;;;;-1.88;69.79;100586.85;88177;1276;98429;-80
2022/02/14 01:24:00;;;;;;;18.60;9.70;;;;;;;-1.88;69.79;100585.27;88238;1276;88870;-80
2022/02/14 01:26:05;;;;;;;19.60;10.60;;;;;;;-1.89;69.84;100585.15;88186;1276;93300;-80
2022/02/14 01:28:15;;;;;;;20.10;10.00;;;;;;;-1.84;69.89;100582.54;88162;1276;78293;-80
2022/02/14 01:30:21;;;;;;;21.60;10.10;;;;;;;-1.84;69.59;100581.50;88197;1276;82478;-79
2022/02/14 01:32:27;;;;;;;20.70;11.10;;;;;;;-1.89;69.59;100588.71;88193;1276;98472;-78
2022/02/14 01:34:32;;;;;;;19.90;10.00;;;;;;;-1.95;69.54;100586.31;88193;1276;87921;-80
2022/02/14 01:36:38;;;;;;;23.60;11.40;;;;;;;-1.99;69.51;100581.48;88221;1276;95092;-80
2022/02/14 01:38:51;;;;;;;18.90;9.90;;;;;;;-2.02;69.49;100581.36;88182;1276;78607;-81
2022/02/14 01:40:58;;;;;;;21.00;10.00;;;;;;;-2.05;69.77;100576.80;88210;1276;81904;-80
2022/02/14 01:43:03;;;;;;;20.60;10.90;;;;;;;-2.09;69.37;100575.50;88172;1276;99984;-80
2022/02/14 01:45:12;;;;;;;20.20;10.70;;;;;;;-2.11;69.85;100573.65;88205;1276;87400;-81
2022/02/14 01:47:20;;;;;;;22.20;10.10;;;;;;;-2.13;69.69;100566.92;88216;1276;95054;-57
2022/02/14 01:49:26;;;;;;;22.00;10.50;;;;;;;-2.16;69.87;100562.89;88132;1276;82326;-59
2022/02/14 01:51:35;;;;;;;22.60;10.10;;;;;;;-2.14;69.79;100556.25;88131;1276;80765;-57
2022/02/14 01:53:41;;;;;;;22.10;10.00;;;;;;;-2.10;69.81;100558.29;88131;1276;100170;-58
2022/02/14 01:55:48;;;;;;;20.70;10.30;;;;;;;-2.06;69.90;100557.98;88171;1276;89065;-55
2022/02/14 01:57:55;;;;;;;18.10;9.70;;;;;;;-2.00;69.69;100552.40;88160;1276;94678;-81
2022/02/14 02:00:09;;;;;;;20.70;10.50;;;;;;;-1.97;69.62;100548.31;88237;1276;76830;-81
2022/02/14 02:02:15;;;;;;;17.70;9.90;;;;;;;-1.95;69.80;100551.71;88243;1276;82701;-56
2022/02/14 02:04:21;;;;;;;21.40;10.30;;;;;;;-1.93;69.64;100547.15;88157;1276;99120;-59
2022/02/14 02:06:27;;;;;;;22.60;10.40;;;;;;;-1.94;69.74;100542.98;88171;1276;88331;-57
2022/02/14 02:08:33;;;;;;;20.30;10.40;;;;;;;-1.92;69.75;100547.62;88163;1276;95592;-56
2022/02/14 02:10:42;;;;;;;23.00;11.20;;;;;;;-1.91;69.82;100550.20;88174;1276;76630;-56
2022/02/14 02:12:53;;;;;;;22.10;10.70;;;;;;;-1.90;69.54;100548.58;88287;1274;83689;-80
2022/02/14 02:15:06;;;;;;;22.60;11.10;;;;;;;-1.96;69.44;100542.98;88246;1276;99386;-80
2022/02/14 02:17:12;;;;;;;21.30;10.50;;;;;;;-1.97;69.54;100546.56;88209;1276;89512;-80
2022/02/14 02:19:18;;;;;;;22.10;10.10;;;;;;;-1.97;69.39;100542.33;88193;1276;93628;-79
2022/02/14 02:21:24;;;;;;;21.90;10.50;;;;;;;-2.00;69.44;100539.38;88192;1276;78291;-57
2022/02/14 02:23:31;;;;;;;20.70;10.90;;;;;;;-2.06;69.41;100538.02;88181;1276;81076;-56
2022/02/14 02:25:37;;;;;;;22.00;11.00;;;;;;;-2.12;69.38;100536.66;88157;1276;97706;-57
2022/02/14 02:27:44;;;;;;;22.60;10.80;;;;;;;-2.18;69.24;100538.85;88226;1276;85909;-81
2022/02/14 02:29:54;;;;;;;20.50;10.80;;;;;;;-2.22;69.48;100542.15;88190;1276;92638;-81
2022/02/14 02:32:00;;;;;;;20.90;9.30;;;;;;;-2.25;69.33;100540.77;88542;1276;78695;-58
2022/02/14 02:34:08;;;;;;;20.20;10.20;;;;;;;-2.30;69.37;100544.64;88171;1276;81118;-57
2022/02/14 02:36:20;;;;;;;23.30;10.10;;;;;;;-2.33;69.37;100541.67;88168;1276;97033;-57
2022/02/14 02:38:26;;;;;;;21.60;10.80;;;;;;;-2.32;69.51;100541.25;88160;1276;88397;-57
2022/02/14 02:40:32;;;;;;;21.10;10.20;;;;;;;-2.31;69.71;100539.77;88155;1276;94191;-60
2022/02/14 02:42:38;;;;;;;21.20;11.50;;;;;;;-2.30;69.66;100541.34;88134;1276;78996;-56
2022/02/14 02:44:48;;;;;;;21.30;10.00;;;;;;;-2.29;69.81;100538.77;88177;1276;80439;-56
2022/02/14 02:47:00;;;;;;;24.40;11.50;;;;;;;-2.26;69.87;100542.13;88131;1276;98816;-59
2022/02/14 02:49:15;;;;;;;19.50;10.80;;;;;;;-2.22;69.87;100542.86;88180;1274;89904;-57
2022/02/14 02:51:21;;;;;;;21.10;9.80;;;;;;;-2.18;69.99;100540.12;88135;1276;93747;-80
2022/02/14 02:53:28;;;;;;;22.50;9.50;;;;;;;-2.16;70.03;100540.83;88185;1276;77494;-80
2022/02/14 02:55:34;;;;;;;24.20;11.60;;;;;;;-2.11;69.75;100537.66;88170;1276;82418;-80
2022/02/14 02:57:40;;;;;;;21.60;10.20;;;;;;;-2.08;69.68;100535.20;88193;1276;99721;-56
2022/02/14 02:59:48;;;;;;;22.60;10.90;;;;;;;-2.11;69.66;100532.41;88187;1276;88628;-57
2022/02/14 03:01:58;;;;;;;18.30;9.90;;;;;;;-2.16;69.87;100531.48;88170;1276;94663;-57
2022/02/14 03:04:06;;;;;;;20.70;10.30;;;;;;;-2.23;69.70;100534.31;88141;1276;81440;-58
2022/02/14 03:06:12;;;;;;;22.50;10.90;;;;;;;-2.31;69.71;100531.11;88174;1276;81751;-57
2022/02/14 03:08:20;;;;;;;23.10;11.80;;;;;;;-2.35;69.87;100526.86;88173;1276;99688;-58
2022/02/14 03:10:26;;;;;;;21.50;10.70;;;;;;;-2.41;69.73;100527.74;88156;1276;88925;-57
2022/02/14 03:12:32;;;;;;;22.80;11.40;;;;;;;-2.46;69.93;100523.53;88155;1276;93317;-57
2022/02/14 03:14:41;;;;;;;18.80;10.00;;;;;;;-2.50;70.02;100522.56;88152;1275;78662;-57
2022/02/14 03:16:46;;;;;;;25.10;11.70;;;;;;;-2.56;70.13;100525.61;88188;1276;80964;-79
2022/02/14 03:18:53;;;;;;;21.40;11.30;;;;;;;-2.59;70.28;100522.68;88148;1276;99348;-81
2022/02/14 03:20:58;;;;;;;23.30;11.10;;;;;;;-2.62;70.27;100523.92;88199;1276;88132;-79
2022/02/14 03:23:09;;;;;;;23.00;11.20;;;;;;;-2.65;70.58;100522.88;88168;1276;95553;-57
2022/02/14 03:25:15;;;;;;;23.50;11.80;;;;;;;-2.62;70.50;100523.36;88050;1278;79182;-57
2022/02/14 03:27:23;;;;;;;22.40;11.40;;;;;;;-2.56;70.46;100524.04;88122;1276;80281;-56
2022/02/14 03:29:29;;;;;;;25.90;11.30;;;;;;;-2.53;70.55;100520.67;88124;1276;99027;-58
2022/02/14 03:31:35;;;;;;;22.60;11.10;;;;;;;-2.51;70.71;100520.53;88093;1276;89124;-80
2022/02/14 03:33:51;;;;;;;20.30;11.00;;;;;;;-2.46;70.62;100516.63;88062;1276;94292;-80
2022/02/14 03:36:01;;;;;;;21.80;11.60;;;;;;;-2.36;70.48;100518.81;87829;1279;279179;-80
2022/02/14 03:38:07;;;;;;;27.10;12.20;;;;;;;-2.34;70.66;100517.80;88078;1278;82015;-58
2022/02/14 03:40:13;;;;;;;22.10;11.50;;;;;;;-2.35;70.54;100515.41;88048;1279;99627;-57
2022/02/14 03:42:19;;;;;;;24.30;12.50;;;;;;;-2.40;70.38;100517.97;88039;1278;87378;-80
2022/02/14 03:44:28;;;;;;;28.10;12.90;;;;;;;-2.43;70.58;100516.55;88057;1277;93992;-80
2022/02/14 03:46:34;;;;;;;24.20;11.90;;;;;;;-2.46;70.34;100516.64;88018;1277;78405;-57
2022/02/14 03:48:39;;;;;;;23.50;12.30;;;;;;;-2.50;70.45;100524.15;88032;1279;83089;-58
2022/02/14 03:50:45;;;;;;;31.60;13.00;;;;;;;-2.51;70.61;100523.14;87982;1281;98017;-57
2022/02/14 03:52:54;;;;;;;29.60;12.80;;;;;;;-2.54;70.48;100517.52;88033;1278;89224;-80
2022/02/14 03:55:05;;;;;;;26.40;13.20;;;;;;;-2.56;70.50;100518.88;88000;1279;96086;-79
2022/02/14 03:57:10;;;;;;;28.40;13.50;;;;;;;-2.59;70.28;100511.94;88079;1279;78921;-57
2022/02/14 03:59:16;;;;;;;28.60;13.00;;;;;;;-2.65;70.31;100511.60;88016;1279;83088;-58
2022/02/14 04:01:38;;;;;;;28.30;13.70;;;;;;;-2.67;70.46;100509.99;88046;1279;99794;-79
2022/02/14 04:03:44;;;;;;;27.50;13.40;;;;;;;-2.71;70.35;100502.48;88059;1278;89201;-80
2022/02/14 04:05:49;;;;;;;25.90;12.00;;;;;;;-2.73;70.55;100499.80;88037;1278;94527;-80
2022/02/14 04:07:58;;;;;;;28.20;12.60;;;;;;;-2.66;70.75;100498.83;88053;1279;79729;-54
2022/02/14 04:10:05;;;;;;;25.70;12.10;;;;;;;-2.62;70.51;100494.63;88037;1279;81152;-57
2022/02/14 04:12:14;;;;;;;25.70;12.50;;;;;;;-2.60;70.73;100492.95;88038;1279;99420;-57
2022/02/14 04:14:20;;;;;;;26.00;12.50;;;;;;;-2.56;70.70;100496.89;88067;1279;89430;-56
2022/02/14 04:16:25;;;;;;;29.20;13.00;;;;;;;-2.52;70.71;100494.83;88028;1277;95649;-80
2022/02/14 04:18:35;;;;;;;30.00;14.00;;;;;;;-2.49;70.42;100491.27;88053;1278;78147;-80
2022/02/14 04:20:41;;;;;;;28.70;13.40;;;;;;;-2.48;70.21;100492.45;88084;1278;80553;-80
2022/02/14 04:22:51;;;;;;;31.10;12.50;;;;;;;-2.49;70.40;100494.48;88021;1279;99776;-81
2022/02/14 04:24:57;;;;;;;29.00;12.70;;;;;;;-2.50;70.41;100493.83;88049;1278;89232;-80
2022/02/14 04:27:06;;;;;;;27.50;12.40;;;;;;;-2.50;70.24;100493.51;88079;1278;95526;-56
2022/02/14 04:29:13;;;;;;;31.20;13.40;;;;;;;-2.53;70.27;100492.44;88015;1279;78040;-57
2022/02/14 04:31:22;;;;;;;29.30;12.30;;;;;;;-2.60;70.24;100490.41;87991;1281;83318;-58
2022/02/14 04:33:28;;;;;;;25.30;12.60;;;;;;;-2.58;70.31;100492.80;88060;1278;98887;-57
2022/02/14 04:35:34;;;;;;;29.60;14.60;;;;;;;-2.62;70.11;100492.73;88061;1278;88139;-57
2022/02/14 04:37:43;;;;;;;25.90;12.10;;;;;;;-2.67;70.26;100494.30;88078;1278;94455;-57
2022/02/14 04:40:03;;;;;;;28.50;13.80;;;;;;;-2.72;70.26;100490.77;88029;1278;77051;-57
2022/02/14 04:42:10;;;;;;;31.20;14.90;;;;;;;-2.73;70.42;100487.16;88043;1278;80349;-82
2022/02/14 04:44:18;;;;;;;28.40;12.30;;;;;;;-2.76;70.43;100486.64;88060;1277;99587;-80
2022/02/14 04:46:26;;;;;;;28.20;13.70;;;;;;;-2.80;70.53;100483.24;88043;1279;89345;-58
2022/02/14 04:48:32;;;;;;;28.60;12.10;;;;;;;-2.83;70.72;100484.62;88048;1279;95924;-58
2022/02/14 04:50:38;;;;;;;26.80;12.80;;;;;;;-2.80;70.51;100485.83;88042;1278;80631;-57
2022/02/14 04:52:44;;;;;;;25.30;12.10;;;;;;;-2.76;70.63;100484.14;88075;1277;80504;-80
2022/02/14 04:54:52;;;;;;;23.20;11.80;;;;;;;-2.74;70.63;100484.54;88011;1279;99936;-79
2022/02/14 04:57:05;;;;;;;23.80;12.10;;;;;;;-2.69;70.63;100480.30;88049;1279;88428;-79
2022/02/14 04:59:14;;;;;;;25.90;12.90;;;;;;;-2.64;70.75;100479.98;88064;1278;94952;-79
2022/02/14 05:01:20;;;;;;;25.10;13.00;;;;;;;-2.60;70.64;100483.02;88090;1278;77038;-56
2022/02/14 05:03:27;;;;;;;27.30;13.20;;;;;;;-2.55;70.83;100484.14;88065;1278;82807;-59
2022/02/14 05:05:35;;;;;;;28.60;13.90;;;;;;;-2.51;70.60;100484.73;88055;1279;99500;-56
2022/02/14 05:07:47;;;;;;;29.40;12.60;;;;;;;-2.50;70.78;100484.83;88073;1278;88697;-79
2022/02/14 05:09:53;;;;;;;25.40;12.80;;;;;;;-2.49;70.43;100487.55;88057;1278;94659;-81
2022/02/14 05:11:59;;;;;;;25.90;12.70;;;;;;;-2.51;70.45;100485.24;88072;1278;78116;-80
2022/02/14 05:14:08;;;;;;;29.60;14.30;;;;;;;-2.54;70.69;100486.88;88050;1279;82220;-80
2022/02/14 05:16:24;;;;;;;27.30;12.50;;;;;;;-2.56;70.61;100491.77;87975;1280;99548;-79
2022/02/14 05:18:29;;;;;;;28.40;13.60;;;;;;;-2.59;70.56;100489.36;88063;1279;89310;-81
2022/02/14 05:20:35;;;;;;;29.10;13.40;;;;;;;-2.64;70.37;100491.94;88037;1278;95324;-78
2022/02/14 05:22:43;;;;;;;28.10;13.70;;;;;;;-2.67;70.53;100486.20;88080;1277;79971;-56
2022/02/14 05:24:58;;;;;;;26.90;12.50;;;;;;;-2.67;70.71;100488.84;88076;1278;81874;-56
2022/02/14 05:27:04;;;;;;;25.50;12.20;;;;;;;-2.69;70.73;100488.95;88065;1279;98355;-80
2022/02/14 05:29:10;;;;;;;25.20;12.90;;;;;;;-2.68;70.69;100489.07;88080;1279;86687;-82
2022/02/14 05:31:34;;;;;;;29.90;13.40;;;;;;;-2.74;70.31;100490.68;88021;1281;94485;-68
2022/02/14 05:33:40;;;;;;;27.70;13.00;;;;;;;-2.73;70.69;100489.77;88017;1279;80599;-59
2022/02/14 05:35:49;;;;;;;27.50;13.50;;;;;;;-2.75;70.51;100490.43;88053;1278;82311;-57
2022/02/14 05:38:11;;;;;;;26.30;13.90;;;;;;;-2.72;70.65;100492.67;88002;1279;99883;-80
2022/02/14 05:40:20;;;;;;;27.90;13.60;;;;;;;-2.71;70.73;100488.76;88079;1278;87222;-82
2022/02/14 05:42:26;;;;;;;29.90;13.30;;;;;;;-2.69;70.86;100492.66;88046;1278;95769;-82
2022/02/14 05:44:36;;;;;;;23.70;12.90;;;;;;;-2.63;70.97;100490.48;88078;1278;77947;-83
2022/02/14 05:46:45;;;;;;;24.00;12.40;;;;;;;-2.62;70.78;100487.22;88083;1279;82168;-81
2022/02/14 05:48:51;;;;;;;26.70;13.20;;;;;;;-2.59;70.59;100489.16;88087;1278;98385;-81
2022/02/14 05:50:57;;;;;;;30.50;14.60;;;;;;;-2.59;70.73;100492.02;88046;1279;87959;-80
2022/02/14 05:53:03;;;;;;;26.10;13.50;;;;;;;-2.59;70.69;100491.10;88086;1278;95761;-56
2022/02/14 05:55:26;;;;;;;28.40;13.70;;;;;;;-2.60;70.68;100494.70;88050;1279;78496;-56
2022/02/14 05:57:32;;;;;;;27.10;13.50;;;;;;;-2.62;70.71;100491.99;88050;1279;82591;-82
2022/02/14 05:59:41;;;;;;;28.40;14.20;;;;;;;-2.63;70.64;100493.84;88059;1277;99854;-82
2022/02/14 06:02:08;;;;;;;29.20;13.50;;;;;;;-2.62;70.51;100492.37;88054;1279;89450;-57
2022/02/14 06:04:14;;;;;;;26.60;13.90;;;;;;;-2.67;70.60;100494.48;88033;1279;94901;-57
2022/02/14 06:06:23;;;;;;;30.30;14.20;;;;;;;-2.71;70.77;100498.62;88033;1279;78946;-80
2022/02/14 06:08:33;;;;;;;26.10;12.80;;;;;;;-2.70;70.61;100499.27;88063;1279;82774;-82
2022/02/14 06:10:39;;;;;;;31.00;14.30;;;;;;;-2.71;70.70;100496.88;88055;1278;100466;-80
2022/02/14 06:12:44;;;;;;;30.00;14.30;;;;;;;-2.70;70.92;100497.30;88034;1278;86764;-57
2022/02/14 06:14:51;;;;;;;26.60;13.20;;;;;;;-2.66;70.95;100499.86;88042;1278;95782;-57
2022/02/14 06:16:58;;;;;;;28.60;13.90;;;;;;;-2.62;70.89;100501.90;88032;1279;80797;-81
2022/02/14 06:19:09;;;;;;;27.80;13.80;;;;;;;-2.59;71.01;100501.35;88075;1279;80421;-83
2022/02/14 06:21:22;;;;;;;29.70;13.70;;;;;;;-2.51;70.81;100504.98;88046;1279;98905;-79
2022/02/14 06:23:31;;;;;;;27.00;14.00;;;;;;;-2.44;70.89;100499.21;88055;1277;87277;-56
2022/02/14 06:25:45;;;;;;;31.20;13.40;;;;;;;-2.36;71.11;100501.30;88043;1279;94108;-57
2022/02/14 06:27:50;;;;;;;28.00;14.10;;;;;;;-2.27;70.94;100494.88;87947;1281;78789;-57
2022/02/14 06:29:59;;;;;;;27.50;13.60;;;;;;;-2.22;70.86;100493.44;88090;1278;82573;-57
2022/02/14 06:32:14;;;;;;;30.80;14.60;;;;;;;-2.16;70.69;100487.73;88051;1279;98214;-57
2022/02/14 06:34:23;;;;;;;29.30;13.30;;;;;;;-2.08;70.72;100487.02;88029;1277;88094;-56
2022/02/14 06:36:31;;;;;;;26.40;14.70;;;;;;;-2.04;70.42;100487.75;88072;1278;95704;-57
2022/02/14 06:38:40;;;;;;;28.90;14.40;;;;;;;-1.98;70.27;100492.96;88052;1279;78094;-58
2022/02/14 06:40:48;;;;;;;23.90;13.70;;;;;;;-1.92;70.36;100488.48;88046;1278;81566;-57
2022/02/14 06:42:55;;;;;;;27.20;14.20;;;;;;;-1.87;70.06;100480.91;88056;1278;97883;-56
2022/02/14 06:45:01;;;;;;;27.90;14.40;;;;;;;-1.80;70.19;100478.98;88015;1279;89139;-56
2022/02/14 06:47:08;;;;;;;28.10;13.50;;;;;;;-1.71;69.78;100477.85;88001;1278;95590;-56
2022/02/14 06:49:14;;;;;;;30.60;14.50;;;;;;;-1.60;70.07;100472.27;88073;1278;78317;-57
2022/02/14 06:51:20;;;;;;;29.00;14.50;;;;;;;-1.33;70.02;100482.26;88065;1278;80048;-74
2022/02/14 06:53:41;;;;;;;27.60;13.80;;;;;;;-1.12;69.47;100479.53;88002;1278;98350;-76
2022/02/14 06:55:50;;;;;;;30.40;15.00;;;;;;;-0.81;69.82;100479.45;88075;1279;88390;-71
2022/02/14 06:57:57;;;;;;;31.40;14.60;;;;;;;-0.23;68.82;100474.39;88052;1279;95767;-58
2022/02/14 07:00:08;;;;;;;29.40;15.00;;;;;;;-0.19;67.86;100476.95;88085;1278;77501;-57
2022/02/14 07:02:17;;;;;;;30.90;13.60;;;;;;;-0.18;68.01;100472.45;88060;1278;80916;-59
2022/02/14 07:04:26;;;;;;;27.90;14.00;;;;;;;-0.09;67.85;100470.15;88010;1279;98603;-58
2022/02/14 07:06:35;;;;;;;25.90;13.80;;;;;;;0.06;67.49;100469.48;88062;1278;89570;-75
2022/02/14 07:08:44;;;;;;;28.10;15.10;;;;;;;0.77;68.56;100471.33;88057;1279;93885;-69
2022/02/14 07:10:50;;;;;;;27.90;14.60;;;;;;;2.09;67.85;100462.30;88039;1279;77263;-75
2022/02/14 07:13:00;;;;;;;29.00;14.50;;;;;;;3.17;66.57;100460.51;88103;1278;80768;-73
2022/02/14 07:15:11;;;;;;;26.10;13.70;;;;;;;4.03;64.09;100463.02;88043;1279;99207;-72
2022/02/14 07:17:17;;;;;;;25.60;14.70;;;;;;;4.90;64.14;100457.02;88054;1278;88211;-57
2022/02/14 07:19:24;;;;;;;28.30;14.30;;;;;;;5.78;63.43;100456.81;88051;1279;94040;-58
2022/02/14 07:21:30;;;;;;;27.40;13.90;;;;;;;6.22;62.01;100452.28;88043;1276;77170;-59
2022/02/14 07:23:37;;;;;;;28.50;15.20;;;;;;;6.44;61.29;100453.62;88057;1279;83200;-59
2022/02/14 07:25:47;;;;;;;26.40;14.90;;;;;;;6.62;59.34;100455.96;88041;1279;99452;-57
2022/02/14 07:27:54;;;;;;;26.40;13.50;;;;;;;6.96;59.14;100452.83;88067;1279;87080;-57
2022/02/14 07:30:05;;;;;;;27.90;14.90;;;;;;;7.22;59.04;100451.94;88048;1279;93729;-59
2022/02/14 07:32:13;;;;;;;24.80;14.20;;;;;;;7.39;58.14;100446.50;88009;1279;77337;-76
2022/02/14 07:34:22;;;;;;;24.50;14.40;;;;;;;7.82;57.76;100444.96;88038;1279;82169;-74
2022/02/14 07:36:33;;;;;;;23.10;13.40;;;;;;;8.29;56.35;100448.53;88066;1279;98124;-57
2022/02/14 07:38:44;;;;;;;25.70;14.70;;;;;;;8.54;54.94;100448.82;88053;1278;88698;-61
2022/02/14 07:40:53;;;;;;;24.10;14.80;;;;;;;8.70;53.78;100446.39;88019;1278;94994;-57
2022/02/14 07:42:59;;;;;;;23.10;13.70;;;;;;;9.06;53.00;100444.19;88043;1279;80706;-58
2022/02/14 07:45:07;;;;;;;23.80;13.10;;;;;;;9.29;52.19;100443.38;88060;1279;81519;-58
2022/02/14 07:47:13;;;;;;;22.00;13.50;;;;;;;9.97;51.94;100437.59;88064;1278;99200;-66
2022/02/14 07:49:19;;;;;;;23.30;14.30;;;;;;;10.73;50.93;100442.28;88038;1278;87676;-69
2022/02/14 07:51:26;;;;;;;23.70;14.20;;;;;;;11.04;49.40;100437.59;88046;1278;95892;-58
2022/02/14 07:53:32;;;;;;;21.10;12.50;;;;;;;11.35;47.27;100438.60;88067;1278;78019;-59
2022/02/14 07:55:40;;;;;;;20.60;13.40;;;;;;;11.69;48.64;100441.15;88036;1279;83450;-58
2022/02/14 07:57:48;;;;;;;19.80;13.30;;;;;;;12.04;47.88;100439.56;88078;1278;99581;-76
2022/02/14 07:59:56;;;;;;;21.70;13.80;;;;;;;12.40;48.18;100438.25;88068;1279;88243;-74
2022/02/14 08:02:03;;;;;;;20.40;13.90;;;;;;;12.85;46.04;100437.95;88040;1278;94996;-58
2022/02/14 08:04:09;;;;;;;20.30;12.50;;;;;;;13.06;45.66;100435.03;88044;1278;78472;-58
2022/02/14 08:06:20;;;;;;;17.60;13.00;;;;;;;13.52;45.91;100434.91;88031;1279;81497;-60
2022/02/14 08:08:27;;;;;;;22.00;13.50;;;;;;;14.18;46.42;100427.24;88037;1279;100305;-77
2022/02/14 08:10:32;;;;;;;20.10;13.60;;;;;;;14.35;44.10;100423.20;88066;1278;88627;-81
2022/02/14 08:12:38;;;;;;;21.40;14.10;;;;;;;14.65;44.07;100424.30;88031;1279;93292;-58
2022/02/14 08:14:48;;;;;;;22.10;13.50;;;;;;;14.96;43.65;100425.92;88024;1277;80505;-57
2022/02/14 08:16:54;;;;;;;19.50;12.90;;;;;;;15.31;43.06;100426.46;88023;1279;82996;-74
2022/02/14 08:19:04;;;;;;;23.50;13.30;;;;;;;15.41;41.62;100425.27;88054;1279;99512;-72
2022/02/14 08:21:13;;;;;;;18.10;13.30;;;;;;;15.63;41.63;100428.71;88043;1278;88781;-74
2022/02/14 08:23:19;;;;;;;18.50;13.00;;;;;;;15.84;41.53;100425.38;88053;1279;95572;-73
2022/02/14 08:25:29;;;;;;;19.20;12.60;;;;;;;16.02;40.63;100423.88;87997;1281;80588;-71
2022/02/14 08:27:40;;;;;;;15.90;12.10;;;;;;;16.09;39.72;100425.91;88071;1279;81240;-58
2022/02/14 08:29:49;;;;;;;18.30;12.00;;;;;;;15.95;40.38;100425.48;88062;1278;98729;-59
2022/02/14 08:31:58;;;;;;;17.30;12.10;;;;;;;16.24;39.45;100421.58;88044;1278;88501;-59
2022/02/14 08:34:07;;;;;;;16.80;12.20;;;;;;;16.36;38.82;100418.83;88043;1278;95428;-59
2022/02/14 08:36:16;;;;;;;16.50;12.40;;;;;;;16.25;38.87;100424.70;88045;1277;78805;-59
2022/02/14 08:38:22;;;;;;;16.80;12.90;;;;;;;15.96;38.50;100420.79;88070;1278;82458;-59
2022/02/14 08:40:28;;;;;;;16.90;12.30;;;;;;;15.95;38.20;100418.75;88073;1278;99797;-59
2022/02/14 08:42:34;;;;;;;16.80;12.80;;;;;;;15.78;37.65;100418.98;88074;1279;88185;-73
2022/02/14 08:44:40;;;;;;;20.20;13.40;;;;;;;15.97;37.84;100413.03;88065;1278;94137;-72
2022/02/14 08:46:46;;;;;;;17.90;12.90;;;;;;;16.16;38.21;100411.30;88045;1278;79201;-59
2022/02/14 08:48:56;;;;;;;21.60;13.40;;;;;;;16.18;37.58;100411.90;88071;1277;80791;-59
2022/02/14 08:51:04;;;;;;;18.60;13.10;;;;;;;16.04;37.42;100410.02;88052;1278;97067;-59
2022/02/14 08:53:17;;;;;;;18.30;12.90;;;;;;;15.69;37.73;100415.41;88060;1279;88536;-59
2022/02/14 08:55:23;;;;;;;15.80;12.00;;;;;;;15.67;37.25;100409.44;88018;1279;95079;-59
2022/02/14 08:57:34;;;;;;;17.40;12.10;;;;;;;15.67;37.79;100408.27;88067;1277;79539;-72
2022/02/14 08:59:44;;;;;;;17.10;12.30;;;;;;;16.03;37.93;100410.38;88066;1279;82521;-73
2022/02/14 09:01:51;;;;;;;16.20;12.00;;;;;;;16.17;38.17;100411.11;88066;1278;98596;-59
2022/02/14 09:04:00;;;;;;;14.80;11.20;;;;;;;16.25;37.86;100405.52;88058;1278;89137;-59
2022/02/14 09:06:12;;;;;;;15.50;11.30;;;;;;;16.10;36.84;100411.64;88031;1279;93634;-60
2022/02/14 09:08:23;;;;;;;16.00;11.60;;;;;;;16.21;37.15;100410.15;88054;1277;79442;-59
2022/02/14 09:10:33;;;;;;;15.10;11.60;;;;;;;16.29;36.15;100408.65;88073;1279;81921;-60
2022/02/14 09:12:41;;;;;;;13.90;10.60;;;;;;;16.37;36.74;100404.32;88055;1278;98855;-73
2022/02/14 09:14:51;;;;;;;15.00;11.20;;;;;;;16.61;36.86;100398.05;88064;1278;87135;-73
2022/02/14 09:16:59;;;;;;;16.30;11.50;;;;;;;16.95;35.97;100400.90;88048;1278;95152;-75
2022/02/14 09:19:08;;;;;;;14.20;12.10;;;;;;;17.21;36.70;100400.58;88044;1278;79489;-74
2022/02/14 09:21:18;;;;;;;14.30;11.90;;;;;;;17.27;36.65;100401.06;88041;1279;81371;-73
2022/02/14 09:23:24;;;;;;;18.30;13.70;;;;;;;17.32;34.87;100399.89;88029;1279;100162;-75
2022/02/14 09:25:33;;;;;;;17.60;12.80;;;;;;;17.06;35.13;100393.64;88022;1278;88828;-73
2022/02/14 09:27:39;;;;;;;16.10;11.80;;;;;;;17.26;35.58;100389.80;88068;1278;94534;-75
2022/02/14 09:29:45;;;;;;;16.00;12.40;;;;;;;17.08;35.61;100389.34;88064;1278;79803;-72
2022/02/14 09:31:59;;;;;;;15.90;12.90;;;;;;;17.11;35.73;100384.20;88027;1279;83509;-59
2022/02/14 09:34:09;;;;;;;14.60;12.10;;;;;;;17.50;34.34;100380.09;88059;1279;97224;-58
2022/02/14 09:36:18;;;;;;;16.20;12.50;;;;;;;17.51;34.60;100380.20;88034;1280;87785;-69
2022/02/14 09:38:28;;;;;;;18.10;13.90;;;;;;;17.55;34.85;100379.64;88053;1277;94929;-73
2022/02/14 09:40:38;;;;;;;16.10;13.00;;;;;;;17.43;35.02;100377.46;88047;1279;79755;-73
2022/02/14 09:42:43;;;;;;;15.80;12.50;;;;;;;17.08;35.31;100375.77;88053;1279;81727;-74